Pride Of Kent — MQCJ2 — position and weather

sailwx.info

Track history (hours):
 
Tides and Currents Weather Stations Pressure Air Temp Water Temp Dewpoint Dewpoint Depression Visibility Wind Speed Wind Dir Waves Ship Positions

Pride Of Kent

Operator: P & O Ferries

Last reported at 2014-Oct-01 05:33 UTC. Time now 2014-Oct-01 06:00 UTC.
Position N 51°03' E 001°36'.

Length 180 m; draft 6 m.

Type: Passenger vessel. MMSI: 232009000.

Date/timePositionNaut miles runAvg speedWind from/ knotsBaromVisibWave heightAir tempDewpointWater temp
2014-Oct-01 05:33N 51°03' E 001°36'10 4.8
2014-Oct-01 03:32N 50°58' E 001°50'1717.0
2014-Oct-01 02:33N 51°05' E 001°26'2 1.0
2014-Oct-01 00:34N 51°06' E 001°29'1514.9
2014-Sep-30 23:33N 50°58' E 001°49'1 1.0
2014-Sep-30 22:24N 50°58' E 001°51'1316.0
2014-Sep-30 21:34N 51°02' E 001°31'8 5.7
2014-Sep-30 20:07N 51°07' E 001°20'815.0
2014-Sep-30 19:34N 51°05' E 001°33'10 5.0
2014-Sep-30 17:33N 50°58' E 001°45'1717.4
2014-Sep-30 16:33N 51°07' E 001°21'1 0.9
2014-Sep-30 15:32N 51°07' E 001°22'1717.6
2014-Sep-30 14:33N 50°58' E 001°46'4 3.3
2014-Sep-30 13:29N 50°58' E 001°51'1313.8
2014-Sep-30 12:33N 51°01' E 001°31'4 1.8
2014-Sep-30 10:33N 51°05' E 001°33'1310.5
2014-Sep-30 09:18N 50°58' E 001°51'4 4.5
2014-Sep-30 08:27N 50°58' E 001°45'1517.0
2014-Sep-30 07:33N 51°06' E 001°24'3 2.1
2014-Sep-30 06:16N 51°07' E 001°21'1116.2
2014-Sep-30 05:34N 51°03' E 001°37'10 9.7
2014-Sep-30 04:31N 50°58' E 001°51'1 0.8
2014-Sep-30 03:29N 50°58' E 001°50'1617.2
2014-Sep-30 02:33N 51°04' E 001°26'4 1.9
2014-Sep-30 00:34N 51°04' E 001°32'1312.4
2014-Sep-29 23:30N 50°58' E 001°51'8 8.5
2014-Sep-29 22:33N 50°59' E 001°38'8 3.8
2014-Sep-29 20:34N 51°05' E 001°30'1514.4
2014-Sep-29 19:31N 50°58' E 001°52'3 3.3
2014-Sep-29 18:32N 50°58' E 001°46'1818.6
2014-Sep-29 17:33N 51°07' E 001°21'1 0.7
2014-Sep-29 16:33N 51°07' E 001°20'1515.3
2014-Sep-29 15:33N 51°01' E 001°42'6 5.4
2014-Sep-29 14:22N 50°58' E 001°51'1210.9
2014-Sep-29 13:14N 51°02' E 001°33'8 4.7
2014-Sep-29 11:33N 51°07' E 001°23'1918.8
2014-Sep-29 10:34N 50°58' E 001°49'2 1.5
2014-Sep-29 09:24N 50°58' E 001°52'5 5.9
2014-Sep-29 08:32N 50°58' E 001°43'1716.7
2014-Sep-29 07:31N 51°07' E 001°21'1 0.4
2014-Sep-29 06:13N 51°07' E 001°20'1116.3
2014-Sep-29 05:34N 51°03' E 001°36'1110.0
2014-Sep-29 04:27N 50°58' E 001°52'0 0.2
2014-Sep-29 03:33N 50°58' E 001°51'1616.1
2014-Sep-29 02:33N 51°05' E 001°28'6 5.5
2014-Sep-29 01:31N 51°07' E 001°20'3 2.7
2014-Sep-29 00:34N 51°07' E 001°24'1716.7
2014-Sep-28 23:33N 50°58' E 001°46'3 3.0
2014-Sep-28 22:33N 50°58' E 001°51'1212.4
2014-Sep-28 21:33N 51°00' E 001°32'5 2.6
2014-Sep-28 19:33N 51°05' E 001°32'1413.8
2014-Sep-28 18:33N 50°58' E 001°51'1 1.4
2014-Sep-28 17:34N 50°58' E 001°49'1817.8
2014-Sep-28 16:33N 51°06' E 001°23'2 2.2
2014-Sep-28 15:33N 51°07' E 001°20'1817.8
2014-Sep-28 14:34N 50°58' E 001°45'4 4.1
2014-Sep-28 13:33N 50°58' E 001°51'1110.9
2014-Sep-28 12:33N 51°01' E 001°34'1110.6
2014-Sep-28 11:30N 51°07' E 001°20'8 8.9
2014-Sep-28 10:33N 51°06' E 001°33'1413.6
2014-Sep-28 09:33N 50°58' E 001°51'3 2.9
2014-Sep-28 08:33N 50°58' E 001°46'1716.8
2014-Sep-28 07:33N 51°06' E 001°23'2 2.0
2014-Sep-28 06:25N 51°07' E 001°20'4 4.1
2014-Sep-28 05:33N 51°06' E 001°25'1817.9
2014-Sep-28 04:34N 50°58' E 001°51'0 0.3
2014-Sep-28 03:33N 50°58' E 001°51'1514.9
2014-Sep-28 02:33N 51°04' E 001°29'2 1.2
2014-Sep-28 00:34N 51°06' E 001°27'1616.5
2014-Sep-27 23:34N 50°58' E 001°51'1 0.7
2014-Sep-27 22:33N 50°58' E 001°52'1413.5
2014-Sep-27 21:33N 51°01' E 001°31'4 1.9
2014-Sep-27 19:34N 51°05' E 001°32'1413.6
2014-Sep-27 18:33N 50°58' E 001°51'2 1.7
2014-Sep-27 17:33N 50°58' E 001°48'1717.0
2014-Sep-27 16:33N 51°05' E 001°24'3 2.8
2014-Sep-27 15:31N 51°07' E 001°20'1616.5
2014-Sep-27 14:33N 50°60' E 001°42'6 5.7
2014-Sep-27 13:30N 50°58' E 001°51'1212.6
2014-Sep-27 12:33N 51°00' E 001°33'3 1.5
2014-Sep-27 10:33N 51°03' E 001°32'1313.0
2014-Sep-27 09:33N 50°58' E 001°51'3 3.5
2014-Sep-27 08:33N 50°58' E 001°45'1817.5
2014-Sep-27 07:33N 51°07' E 001°21'1 0.7
2014-Sep-27 06:18N 51°07' E 001°20'1114.6
2014-Sep-27 05:33N 51°03' E 001°36'1110.9
2014-Sep-27 04:34N 50°58' E 001°52'1 0.7
2014-Sep-27 03:33N 50°58' E 001°51'1616.6
2014-Sep-27 02:34N 51°03' E 001°26'6 4.4
2014-Sep-27 01:17N 51°07' E 001°20'6 8.1
2014-Sep-27 00:34N 51°05' E 001°29'1515.3
2014-Sep-26 23:33N 50°58' E 001°51'0 0.2
2014-Sep-26 22:33N 50°58' E 001°51'1514.7
2014-Sep-26 21:33N 51°03' E 001°29'7 5.0
2014-Sep-26 20:10N 51°07' E 001°20'6 9.6
2014-Sep-26 19:33N 51°05' E 001°29'1615.7
2014-Sep-26 18:34N 50°58' E 001°51'2 2.3
2014-Sep-26 17:33N 50°58' E 001°47'1918.6
2014-Sep-26 16:32N 51°07' E 001°20'2 1.7
2014-Sep-26 15:34N 51°07' E 001°23'1817.8
2014-Sep-26 14:33N 50°58' E 001°47'2 2.4
2014-Sep-26 13:33N 50°58' E 001°51'1312.8
2014-Sep-26 12:33N 51°01' E 001°32'3 1.5
2014-Sep-26 10:34N 51°04' E 001°31'1414.1
2014-Sep-26 09:33N 50°58' E 001°51'2 2.4
2014-Sep-26 08:32N 50°58' E 001°47'1717.8
2014-Sep-26 07:34N 51°06' E 001°23'2 1.5
2014-Sep-26 06:18N 51°07' E 001°20'1215.9
2014-Sep-26 05:33N 51°03' E 001°37'10 9.2
2014-Sep-26 04:30N 50°58' E 001°51'1 1.2
2014-Sep-26 03:33N 50°58' E 001°49'1515.5
2014-Sep-26 02:33N 51°04' E 001°27'2 1.1
2014-Sep-26 00:33N 51°06' E 001°26'1615.5
2014-Sep-25 23:33N 50°58' E 001°47'3 2.6
2014-Sep-25 22:32N 50°58' E 001°51'1313.7
2014-Sep-25 21:33N 51°02' E 001°31'2 0.8
2014-Sep-25 19:34N 51°04' E 001°32'1312.6
2014-Sep-25 18:32N 50°58' E 001°51'6 6.3
2014-Sep-25 17:33N 50°58' E 001°41'15 7.2
2014-Sep-25 15:31N 51°07' E 001°22'1718.2
2014-Sep-25 14:33N 50°58' E 001°46'3 3.3
2014-Sep-25 13:33N 50°58' E 001°51'1515.2
2014-Sep-25 12:34N 51°03' E 001°29'6 4.5
2014-Sep-25 11:14N 51°07' E 001°22'1116.7
2014-Sep-25 10:34N 51°03' E 001°38'9 9.0
2014-Sep-25 09:30N 50°58' E 001°51'4 4.4
2014-Sep-25 08:32N 50°58' E 001°44'17 7.3
2014-Sep-25 06:15N 51°07' E 001°22'1116.5
2014-Sep-25 05:34N 51°01' E 001°37'10 9.6
2014-Sep-25 04:33N 50°58' E 001°52'2 1.5
2014-Sep-25 03:29N 50°58' E 001°49'1516.0
2014-Sep-25 02:34N 51°04' E 001°28'6 4.2
2014-Sep-25 01:11N 51°07' E 001°20'5 8.4
2014-Sep-25 00:33N 51°07' E 001°29'1514.7
2014-Sep-24 23:33N 50°58' E 001°47'3 2.3
2014-Sep-24 22:27N 50°58' E 001°51'1415.3
2014-Sep-24 21:33N 51°03' E 001°31'2 0.8
2014-Sep-24 19:34N 51°04' E 001°31'6 2.8
2014-Sep-24 17:16N 50°59' E 001°37'12 6.6
2014-Sep-24 15:26N 51°07' E 001°22'1618.4
2014-Sep-24 14:34N 50°59' E 001°44'5 4.4
2014-Sep-24 13:29N 50°58' E 001°51'1212.8
2014-Sep-24 12:33N 51°02' E 001°33'4 1.8
2014-Sep-24 10:33N 51°05' E 001°30'1514.4
2014-Sep-24 09:32N 50°58' E 001°51'4 4.0
2014-Sep-24 08:26N 50°58' E 001°44'1618.3
2014-Sep-24 07:34N 51°06' E 001°22'1 1.0
2014-Sep-24 06:11N 51°07' E 001°21'1117.0
2014-Sep-24 05:33N 51°02' E 001°36'9 8.9
2014-Sep-24 04:33N 50°58' E 001°49'0 0.4
2014-Sep-24 03:29N 50°58' E 001°50'1617.7
2014-Sep-24 02:34N 51°06' E 001°26'1 0.5
2014-Sep-24 00:34N 51°07' E 001°26'1615.5
2014-Sep-23 23:33N 50°58' E 001°47'3 2.5
2014-Sep-23 22:26N 50°58' E 001°51'1314.6
2014-Sep-23 21:34N 51°03' E 001°32'3 1.6
2014-Sep-23 19:33N 51°05' E 001°29'1615.6
2014-Sep-23 18:33N 50°58' E 001°51'1 0.7
2014-Sep-23 17:32N 50°58' E 001°50'1717.1
2014-Sep-23 16:33N 51°05' E 001°25'4 3.8
2014-Sep-23 15:30N 51°07' E 001°20'1616.8
2014-Sep-23 14:33N 50°59' E 001°42'6 5.4
2014-Sep-23 13:27N 50°58' E 001°51'1314.2
2014-Sep-23 12:33N 51°01' E 001°32'4 2.1
2014-Sep-23 10:33N 51°05' E 001°29'1515.4
2014-Sep-23 09:33N 50°58' E 001°51'0 0.4
2014-Sep-23 08:33N 50°58' E 001°50'1717.4
2014-Sep-23 07:34N 51°05' E 001°25'4 3.0
2014-Sep-23 06:16N 51°07' E 001°20'1115.2
2014-Sep-23 05:34N 51°03' E 001°36'1110.9
2014-Sep-23 04:33N 50°58' E 001°52'1 0.7
2014-Sep-23 03:34N 50°58' E 001°51'1615.8
2014-Sep-23 02:33N 51°05' E 001°27'5 5.2
2014-Sep-23 01:31N 51°07' E 001°20'4 4.1
2014-Sep-23 00:33N 51°06' E 001°26'1515.3
2014-Sep-22 23:33N 50°58' E 001°47'3 2.4
2014-Sep-22 22:27N 50°58' E 001°51'1314.2
2014-Sep-22 21:33N 51°02' E 001°32'2 1.2
2014-Sep-22 19:33N 51°04' E 001°34'12 9.7
2014-Sep-22 18:17N 50°58' E 001°51'5 7.1
2014-Sep-22 17:33N 50°58' E 001°43'1716.0
2014-Sep-22 16:29N 51°07' E 001°20'0 0.4
2014-Sep-22 15:34N 51°07' E 001°20'1615.9
2014-Sep-22 14:33N 50°59' E 001°42'6 5.9
2014-Sep-22 13:33N 50°58' E 001°51'9 8.8
2014-Sep-22 12:33N 50°59' E 001°37'1313.5
2014-Sep-22 11:33N 51°07' E 001°20'6 6.0
2014-Sep-22 10:34N 51°05' E 001°29'1515.4
2014-Sep-22 09:33N 50°58' E 001°51'0 0.3
2014-Sep-22 08:34N 50°58' E 001°50'1717.3
2014-Sep-22 07:33N 51°05' E 001°25'4 4.0
2014-Sep-22 06:33N 51°07' E 001°20'1312.7
2014-Sep-22 05:34N 51°02' E 001°38'9 9.3
2014-Sep-22 04:33N 50°58' E 001°52'1 1.2
2014-Sep-22 03:34N 50°58' E 001°50'1616.0
2014-Sep-22 02:33N 51°05' E 001°27'5 4.8
2014-Sep-22 01:33N 51°07' E 001°20'6 6.0
2014-Sep-22 00:34N 51°05' E 001°29'1413.5
2014-Sep-21 23:33N 50°58' E 001°47'2 2.0
2014-Sep-21 22:33N 50°58' E 001°51'1413.7
2014-Sep-21 21:33N 51°02' E 001°30'8 7.9
2014-Sep-21 20:33N 51°07' E 001°20'7 7.2
2014-Sep-21 19:33N 51°05' E 001°31'1414.4
2014-Sep-21 18:34N 50°58' E 001°51'1 0.9
2014-Sep-21 17:33N 50°58' E 001°50'1716.6
2014-Sep-21 16:34N 51°05' E 001°25'4 4.2
2014-Sep-21 15:33N 51°07' E 001°20'1414.1
2014-Sep-21 14:34N 51°01' E 001°40'8 7.7
2014-Sep-21 13:33N 50°58' E 001°51'9 9.2
2014-Sep-21 12:33N 50°59' E 001°37'1313.2
2014-Sep-21 11:34N 51°07' E 001°20'6 6.2
2014-Sep-21 10:33N 51°06' E 001°30'1615.5
2014-Sep-21 09:33N 50°58' E 001°51'0 0.1
2014-Sep-21 08:34N 50°58' E 001°51'1716.9
2014-Sep-21 07:33N 51°05' E 001°26'5 4.6
2014-Sep-21 06:33N 51°07' E 001°20'9 8.6
2014-Sep-21 05:34N 51°03' E 001°32'1313.2
2014-Sep-21 04:33N 50°58' E 001°51'6 5.7
2014-Sep-21 03:33N 50°58' E 001°42'  
Track history (hours):
 
Tides and Currents Weather Stations Pressure Air Temp Water Temp Dewpoint Dewpoint Depression Visibility Wind Speed Wind Dir Waves Ship Positions

Pride Of Kent

Operator: P & O Ferries

Last reported at 2014-Oct-01 05:33 UTC. Time now 2014-Oct-01 06:00 UTC.
Position N 51°03' E 001°36'.

Length 180 m; draft 6 m.

Type: Passenger vessel. MMSI: 232009000.

Date/timePositionNaut miles runAvg speedWind from/ knotsBaromVisibWave heightAir tempDewpointWater temp
2014-Oct-01 05:33N 51°03' E 001°36'10 4.8
2014-Oct-01 03:32N 50°58' E 001°50'1717.0
2014-Oct-01 02:33N 51°05' E 001°26'2 1.0
2014-Oct-01 00:34N 51°06' E 001°29'1514.9
2014-Sep-30 23:33N 50°58' E 001°49'1 1.0
2014-Sep-30 22:24N 50°58' E 001°51'1316.0
2014-Sep-30 21:34N 51°02' E 001°31'8 5.7
2014-Sep-30 20:07N 51°07' E 001°20'815.0
2014-Sep-30 19:34N 51°05' E 001°33'10 5.0
2014-Sep-30 17:33N 50°58' E 001°45'1717.4
2014-Sep-30 16:33N 51°07' E 001°21'1 0.9
2014-Sep-30 15:32N 51°07' E 001°22'1717.6
2014-Sep-30 14:33N 50°58' E 001°46'4 3.3
2014-Sep-30 13:29N 50°58' E 001°51'1313.8
2014-Sep-30 12:33N 51°01' E 001°31'4 1.8
2014-Sep-30 10:33N 51°05' E 001°33'1310.5
2014-Sep-30 09:18N 50°58' E 001°51'4 4.5
2014-Sep-30 08:27N 50°58' E 001°45'1517.0
2014-Sep-30 07:33N 51°06' E 001°24'3 2.1
2014-Sep-30 06:16N 51°07' E 001°21'1116.2
2014-Sep-30 05:34N 51°03' E 001°37'10 9.7
2014-Sep-30 04:31N 50°58' E 001°51'1 0.8
2014-Sep-30 03:29N 50°58' E 001°50'1617.2
2014-Sep-30 02:33N 51°04' E 001°26'4 1.9
2014-Sep-30 00:34N 51°04' E 001°32'1312.4
2014-Sep-29 23:30N 50°58' E 001°51'8 8.5
2014-Sep-29 22:33N 50°59' E 001°38'8 3.8
2014-Sep-29 20:34N 51°05' E 001°30'1514.4
2014-Sep-29 19:31N 50°58' E 001°52'3 3.3
2014-Sep-29 18:32N 50°58' E 001°46'1818.6
2014-Sep-29 17:33N 51°07' E 001°21'1 0.7
2014-Sep-29 16:33N 51°07' E 001°20'1515.3
2014-Sep-29 15:33N 51°01' E 001°42'6 5.4
2014-Sep-29 14:22N 50°58' E 001°51'1210.9
2014-Sep-29 13:14N 51°02' E 001°33'8 4.7
2014-Sep-29 11:33N 51°07' E 001°23'1918.8
2014-Sep-29 10:34N 50°58' E 001°49'2 1.5
2014-Sep-29 09:24N 50°58' E 001°52'5 5.9
2014-Sep-29 08:32N 50°58' E 001°43'1716.7
2014-Sep-29 07:31N 51°07' E 001°21'1 0.4
2014-Sep-29 06:13N 51°07' E 001°20'1116.3
2014-Sep-29 05:34N 51°03' E 001°36'1110.0
2014-Sep-29 04:27N 50°58' E 001°52'0 0.2
2014-Sep-29 03:33N 50°58' E 001°51'1616.1
2014-Sep-29 02:33N 51°05' E 001°28'6 5.5
2014-Sep-29 01:31N 51°07' E 001°20'3 2.7
2014-Sep-29 00:34N 51°07' E 001°24'1716.7
2014-Sep-28 23:33N 50°58' E 001°46'3 3.0
2014-Sep-28 22:33N 50°58' E 001°51'1212.4
2014-Sep-28 21:33N 51°00' E 001°32'5 2.6
2014-Sep-28 19:33N 51°05' E 001°32'1413.8
2014-Sep-28 18:33N 50°58' E 001°51'1 1.4
2014-Sep-28 17:34N 50°58' E 001°49'1817.8
2014-Sep-28 16:33N 51°06' E 001°23'2 2.2
2014-Sep-28 15:33N 51°07' E 001°20'1817.8
2014-Sep-28 14:34N 50°58' E 001°45'4 4.1
2014-Sep-28 13:33N 50°58' E 001°51'1110.9
2014-Sep-28 12:33N 51°01' E 001°34'1110.6
2014-Sep-28 11:30N 51°07' E 001°20'8 8.9
2014-Sep-28 10:33N 51°06' E 001°33'1413.6
2014-Sep-28 09:33N 50°58' E 001°51'3 2.9
2014-Sep-28 08:33N 50°58' E 001°46'1716.8
2014-Sep-28 07:33N 51°06' E 001°23'2 2.0
2014-Sep-28 06:25N 51°07' E 001°20'4 4.1
2014-Sep-28 05:33N 51°06' E 001°25'1817.9
2014-Sep-28 04:34N 50°58' E 001°51'0 0.3
2014-Sep-28 03:33N 50°58' E 001°51'1514.9
2014-Sep-28 02:33N 51°04' E 001°29'2 1.2
2014-Sep-28 00:34N 51°06' E 001°27'1616.5
2014-Sep-27 23:34N 50°58' E 001°51'1 0.7
2014-Sep-27 22:33N 50°58' E 001°52'1413.5
2014-Sep-27 21:33N 51°01' E 001°31'4 1.9
2014-Sep-27 19:34N 51°05' E 001°32'1413.6
2014-Sep-27 18:33N 50°58' E 001°51'2 1.7
2014-Sep-27 17:33N 50°58' E 001°48'1717.0
2014-Sep-27 16:33N 51°05' E 001°24'3 2.8
2014-Sep-27 15:31N 51°07' E 001°20'1616.5
2014-Sep-27 14:33N 50°60' E 001°42'6 5.7
2014-Sep-27 13:30N 50°58' E 001°51'1212.6
2014-Sep-27 12:33N 51°00' E 001°33'3 1.5
2014-Sep-27 10:33N 51°03' E 001°32'1313.0
2014-Sep-27 09:33N 50°58' E 001°51'3 3.5
2014-Sep-27 08:33N 50°58' E 001°45'1817.5
2014-Sep-27 07:33N 51°07' E 001°21'1 0.7
2014-Sep-27 06:18N 51°07' E 001°20'1114.6
2014-Sep-27 05:33N 51°03' E 001°36'1110.9
2014-Sep-27 04:34N 50°58' E 001°52'1 0.7
2014-Sep-27 03:33N 50°58' E 001°51'1616.6
2014-Sep-27 02:34N 51°03' E 001°26'6 4.4
2014-Sep-27 01:17N 51°07' E 001°20'6 8.1
2014-Sep-27 00:34N 51°05' E 001°29'1515.3
2014-Sep-26 23:33N 50°58' E 001°51'0 0.2
2014-Sep-26 22:33N 50°58' E 001°51'1514.7
2014-Sep-26 21:33N 51°03' E 001°29'7 5.0
2014-Sep-26 20:10N 51°07' E 001°20'6 9.6
2014-Sep-26 19:33N 51°05' E 001°29'1615.7
2014-Sep-26 18:34N 50°58' E 001°51'2 2.3
2014-Sep-26 17:33N 50°58' E 001°47'1918.6
2014-Sep-26 16:32N 51°07' E 001°20'2 1.7
2014-Sep-26 15:34N 51°07' E 001°23'1817.8
2014-Sep-26 14:33N 50°58' E 001°47'2 2.4
2014-Sep-26 13:33N 50°58' E 001°51'1312.8
2014-Sep-26 12:33N 51°01' E 001°32'3 1.5
2014-Sep-26 10:34N 51°04' E 001°31'1414.1
2014-Sep-26 09:33N 50°58' E 001°51'2 2.4
2014-Sep-26 08:32N 50°58' E 001°47'1717.8
2014-Sep-26 07:34N 51°06' E 001°23'2 1.5
2014-Sep-26 06:18N 51°07' E 001°20'1215.9
2014-Sep-26 05:33N 51°03' E 001°37'10 9.2
2014-Sep-26 04:30N 50°58' E 001°51'1 1.2
2014-Sep-26 03:33N 50°58' E 001°49'1515.5
2014-Sep-26 02:33N 51°04' E 001°27'2 1.1
2014-Sep-26 00:33N 51°06' E 001°26'1615.5
2014-Sep-25 23:33N 50°58' E 001°47'3 2.6
2014-Sep-25 22:32N 50°58' E 001°51'1313.7
2014-Sep-25 21:33N 51°02' E 001°31'2 0.8
2014-Sep-25 19:34N 51°04' E 001°32'1312.6
2014-Sep-25 18:32N 50°58' E 001°51'6 6.3
2014-Sep-25 17:33N 50°58' E 001°41'15 7.2
2014-Sep-25 15:31N 51°07' E 001°22'1718.2
2014-Sep-25 14:33N 50°58' E 001°46'3 3.3
2014-Sep-25 13:33N 50°58' E 001°51'1515.2
2014-Sep-25 12:34N 51°03' E 001°29'6 4.5
2014-Sep-25 11:14N 51°07' E 001°22'1116.7
2014-Sep-25 10:34N 51°03' E 001°38'9 9.0
2014-Sep-25 09:30N 50°58' E 001°51'4 4.4
2014-Sep-25 08:32N 50°58' E 001°44'17 7.3
2014-Sep-25 06:15N 51°07' E 001°22'1116.5
2014-Sep-25 05:34N 51°01' E 001°37'10 9.6
2014-Sep-25 04:33N 50°58' E 001°52'2 1.5
2014-Sep-25 03:29N 50°58' E 001°49'1516.0
2014-Sep-25 02:34N 51°04' E 001°28'6 4.2
2014-Sep-25 01:11N 51°07' E 001°20'5 8.4
2014-Sep-25 00:33N 51°07' E 001°29'1514.7
2014-Sep-24 23:33N 50°58' E 001°47'3 2.3
2014-Sep-24 22:27N 50°58' E 001°51'1415.3
2014-Sep-24 21:33N 51°03' E 001°31'2 0.8
2014-Sep-24 19:34N 51°04' E 001°31'6 2.8
2014-Sep-24 17:16N 50°59' E 001°37'12 6.6
2014-Sep-24 15:26N 51°07' E 001°22'1618.4
2014-Sep-24 14:34N 50°59' E 001°44'5 4.4
2014-Sep-24 13:29N 50°58' E 001°51'1212.8
2014-Sep-24 12:33N 51°02' E 001°33'4 1.8
2014-Sep-24 10:33N 51°05' E 001°30'1514.4
2014-Sep-24 09:32N 50°58' E 001°51'4 4.0
2014-Sep-24 08:26N 50°58' E 001°44'1618.3
2014-Sep-24 07:34N 51°06' E 001°22'1 1.0
2014-Sep-24 06:11N 51°07' E 001°21'1117.0
2014-Sep-24 05:33N 51°02' E 001°36'9 8.9
2014-Sep-24 04:33N 50°58' E 001°49'0 0.4
2014-Sep-24 03:29N 50°58' E 001°50'1617.7
2014-Sep-24 02:34N 51°06' E 001°26'1 0.5
2014-Sep-24 00:34N 51°07' E 001°26'1615.5
2014-Sep-23 23:33N 50°58' E 001°47'3 2.5
2014-Sep-23 22:26N 50°58' E 001°51'1314.6
2014-Sep-23 21:34N 51°03' E 001°32'3 1.6
2014-Sep-23 19:33N 51°05' E 001°29'1615.6
2014-Sep-23 18:33N 50°58' E 001°51'1 0.7
2014-Sep-23 17:32N 50°58' E 001°50'1717.1
2014-Sep-23 16:33N 51°05' E 001°25'4 3.8
2014-Sep-23 15:30N 51°07' E 001°20'1616.8
2014-Sep-23 14:33N 50°59' E 001°42'6 5.4
2014-Sep-23 13:27N 50°58' E 001°51'1314.2
2014-Sep-23 12:33N 51°01' E 001°32'4 2.1
2014-Sep-23 10:33N 51°05' E 001°29'1515.4
2014-Sep-23 09:33N 50°58' E 001°51'0 0.4
2014-Sep-23 08:33N 50°58' E 001°50'1717.4
2014-Sep-23 07:34N 51°05' E 001°25'4 3.0
2014-Sep-23 06:16N 51°07' E 001°20'1115.2
2014-Sep-23 05:34N 51°03' E 001°36'1110.9
2014-Sep-23 04:33N 50°58' E 001°52'1 0.7
2014-Sep-23 03:34N 50°58' E 001°51'1615.8
2014-Sep-23 02:33N 51°05' E 001°27'5 5.2
2014-Sep-23 01:31N 51°07' E 001°20'4 4.1
2014-Sep-23 00:33N 51°06' E 001°26'1515.3
2014-Sep-22 23:33N 50°58' E 001°47'3 2.4
2014-Sep-22 22:27N 50°58' E 001°51'1314.2
2014-Sep-22 21:33N 51°02' E 001°32'2 1.2
2014-Sep-22 19:33N 51°04' E 001°34'12 9.7
2014-Sep-22 18:17N 50°58' E 001°51'5 7.1
2014-Sep-22 17:33N 50°58' E 001°43'1716.0
2014-Sep-22 16:29N 51°07' E 001°20'0 0.4
2014-Sep-22 15:34N 51°07' E 001°20'1615.9
2014-Sep-22 14:33N 50°59' E 001°42'6 5.9
2014-Sep-22 13:33N 50°58' E 001°51'9 8.8
2014-Sep-22 12:33N 50°59' E 001°37'1313.5
2014-Sep-22 11:33N 51°07' E 001°20'6 6.0
2014-Sep-22 10:34N 51°05' E 001°29'1515.4
2014-Sep-22 09:33N 50°58' E 001°51'0 0.3
2014-Sep-22 08:34N 50°58' E 001°50'1717.3
2014-Sep-22 07:33N 51°05' E 001°25'4 4.0
2014-Sep-22 06:33N 51°07' E 001°20'1312.7
2014-Sep-22 05:34N 51°02' E 001°38'9 9.3
2014-Sep-22 04:33N 50°58' E 001°52'1 1.2
2014-Sep-22 03:34N 50°58' E 001°50'1616.0
2014-Sep-22 02:33N 51°05' E 001°27'5 4.8
2014-Sep-22 01:33N 51°07' E 001°20'6 6.0
2014-Sep-22 00:34N 51°05' E 001°29'1413.5
2014-Sep-21 23:33N 50°58' E 001°47'2 2.0
2014-Sep-21 22:33N 50°58' E 001°51'1413.7
2014-Sep-21 21:33N 51°02' E 001°30'8 7.9
2014-Sep-21 20:33N 51°07' E 001°20'7 7.2
2014-Sep-21 19:33N 51°05' E 001°31'1414.4
2014-Sep-21 18:34N 50°58' E 001°51'1 0.9
2014-Sep-21 17:33N 50°58' E 001°50'1716.6
2014-Sep-21 16:34N 51°05' E 001°25'4 4.2
2014-Sep-21 15:33N 51°07' E 001°20'1414.1
2014-Sep-21 14:34N 51°01' E 001°40'8 7.7
2014-Sep-21 13:33N 50°58' E 001°51'9 9.2
2014-Sep-21 12:33N 50°59' E 001°37'1313.2
2014-Sep-21 11:34N 51°07' E 001°20'6 6.2
2014-Sep-21 10:33N 51°06' E 001°30'1615.5
2014-Sep-21 09:33N 50°58' E 001°51'0 0.1
2014-Sep-21 08:34N 50°58' E 001°51'1716.9
2014-Sep-21 07:33N 51°05' E 001°26'5 4.6
2014-Sep-21 06:33N 51°07' E 001°20'9 8.6
2014-Sep-21 05:34N 51°03' E 001°32'1313.2
2014-Sep-21 04:33N 50°58' E 001°51'6 5.7
2014-Sep-21 03:33N 50°58' E 001°42'  

Dump ship's entire track history